Terminal Aerodrome Forecast
Issued by NWS

Home | Current Version | Previous Version | Graphics & Text | Print | Product List | Glossary On
Versions: 1 2 3 4 5 6 7 8 9 10 11 12 13 14 15
089
FTUS43 KGRB 250525
TAFCWA
TAF
KCWA 250525Z 2506/2606 20005KT P6SM BKN100
     FM251000 21006KT P6SM -TSRA SCT045CB BKN090
     FM251400 21008KT P6SM BKN050
     FM251600 23011G18KT P6SM BKN070
     FM252300 23007KT P6SM SCT035 OVC070
      TEMPO 2523/2603 3SM +TSRA BKN025CB
     FM260300 25007KT 5SM -SHRA BR BKN030=

USA.gov is the U.S. government's official web portal to all federal, state and local government web resources and services.